Santiago, Spain

9:41 PM CET on December 05, 2016 (GMT +0100)
EA1NK | | Change Station

Elev 1109 ft 42.90 °N, 8.53 °W | Updated 14 seconds ago

Clear
Clear
51.8 °F
Feels Like 51.8 °F
N
1.6
Wind Variable Wind from North
Gusts 2.2 mph

Today
High -- | Low -- °F
--% Chance of Precip.
Yesterday
High -- | Low -- °F
Precip. -- in
Pressure 30.18 in
Visibility -9999.0 miles
Clouds
Dew Point 47 °F
Humidity 85%
Rainfall 0.00 in
Snow Depth Not available.
8:49 AM 5:59 PM
Waxing Crescent, 34% visible
METAR LEST 052030Z 00000KT CAVOK 12/10 Q1022 NOSIG
Pressure 30.18 in
Visibility -9999.0 miles
Clouds
Dew Point 47 °F
Humidity 85%
Rainfall 0.00 in
Snow Depth Not available.
8:49 AM 5:59 PM
Waxing Crescent, 34% visible
METAR LEST 052030Z 00000KT CAVOK 12/10 Q1022 NOSIG

10-Day Weather Forecast

×

Almanac

Astronomy

Dec. 05, 2016 Rise Set
Actual Time
Civil Twilight
Nautical Twilight
Astronomical Twilight
Moon
Length of Visible Light
Length of Day
Tomorrow will be .
, % of the Moon is Illuminated

Today's Extremes

Country Highs Country Lows

Community

WunderPhotos

Upload Photos

1,955,861 photos uploaded!

WunderBlog® & News

Nearby

Air Quality

  Air Quality AQ Index Pollutant
Not available.

Snow Depth

Station Depth Elevation

Earthquake Activity

City Distance Mag. Time & Date
Minimum magnitude displayed is 2.5.

Coastal Water Temperatures

Place Temperature

Stations

Nearby Weather Stations

Station Location Temp. Windchill Dew Point Humidity Wind Precip. Elev Updated Type